Time;durP1;ratioP1;P1;durP2;ratioP2;P2;SDS_P1;SDS_P2;PMS_P1;PMS_P2;Temp;Humidity;BMP_temperature;BMP_pressure;BME280_temperature;BME280_humidity;BME280_pressure;Samples;Min_cycle;Max_cycle;Signal;HPM_P1;HPM_P2
2023/05/23 00:02:17;;;;;;;16.43;14.83;;;21.40;99.90;;;;;;5015592;28;20268;-66
2023/05/23 00:04:43;;;;;;;18.33;16.63;;;21.50;99.90;;;;;;5020204;28;20282;-66
2023/05/23 00:07:09;;;;;;;17.67;15.87;;;21.50;99.90;;;;;;5018153;28;20267;-65
2023/05/23 00:09:34;;;;;;;16.40;14.70;;;21.40;99.90;;;;;;5020750;28;20200;-65
2023/05/23 00:12:00;;;;;;;16.90;15.10;;;21.40;99.90;;;;;;5020189;28;20613;-65
2023/05/23 00:14:26;;;;;;;16.87;14.83;;;21.40;99.90;;;;;;5013096;28;20483;-65
2023/05/23 00:16:52;;;;;;;20.23;16.17;;;21.40;99.90;;;;;;5007770;28;20443;-65
2023/05/23 00:19:17;;;;;;;17.13;15.50;;;21.30;99.90;;;;;;5009614;28;20292;-66
2023/05/23 00:21:49;;;;;;;17.87;16.07;;;21.30;99.90;;;;;;5016763;28;20207;-65
2023/05/23 00:24:17;;;;;;;16.80;14.83;;;21.30;99.90;;;;;;5011889;28;20619;-65
2023/05/23 00:26:43;;;;;;;16.67;15.00;;;21.40;99.90;;;;;;5021164;28;20470;-65
2023/05/23 00:29:14;;;;;;;18.13;16.20;;;21.40;99.90;;;;;;5015460;28;20467;-65
2023/05/23 00:31:40;;;;;;;17.03;14.67;;;21.40;99.90;;;;;;5023504;28;20496;-65
2023/05/23 00:34:05;;;;;;;16.77;15.10;;;21.20;99.90;;;;;;5027922;28;20514;-65
2023/05/23 00:36:36;;;;;;;16.00;14.40;;;21.20;99.90;;;;;;5018610;28;20189;-65
2023/05/23 00:39:03;;;;;;;17.80;16.03;;;21.10;99.90;;;;;;5004921;28;20584;-65
2023/05/23 00:41:30;;;;;;;16.07;14.40;;;21.00;99.90;;;;;;5013920;28;20861;-66
2023/05/23 00:43:58;;;;;;;17.53;15.60;;;21.00;99.90;;;;;;5016753;28;20427;-65
2023/05/23 00:46:25;;;;;;;16.40;14.80;;;21.10;99.90;;;;;;5019180;28;20522;-65
2023/05/23 00:48:52;;;;;;;17.07;14.83;;;21.00;99.90;;;;;;5017376;28;21242;-65
2023/05/23 00:51:17;;;;;;;15.87;14.33;;;21.00;99.90;;;;;;5024619;28;20467;-65
2023/05/23 00:53:43;;;;;;;17.37;15.53;;;21.00;99.90;;;;;;5020502;28;20958;-65
2023/05/23 00:56:09;;;;;;;16.30;14.30;;;21.00;99.90;;;;;;5008736;28;20185;-65
2023/05/23 00:58:34;;;;;;;16.90;15.40;;;21.10;99.90;;;;;;5009004;28;20209;-65
2023/05/23 01:01:00;;;;;;;17.60;14.90;;;21.10;99.90;;;;;;5015296;28;20191;-65
2023/05/23 01:03:27;;;;;;;16.60;15.00;;;21.10;99.90;;;;;;5014341;28;20177;-65
2023/05/23 01:05:54;;;;;;;15.47;13.97;;;21.00;99.90;;;;;;5010292;28;21070;-65
2023/05/23 01:08:20;;;;;;;16.73;15.13;;;21.10;99.90;;;;;;5008645;28;20960;-65
2023/05/23 01:10:46;;;;;;;18.03;15.83;;;21.00;99.90;;;;;;5010213;28;20439;-65
2023/05/23 01:13:17;;;;;;;17.93;16.10;;;20.90;99.90;;;;;;5018410;28;20419;-67
2023/05/23 01:15:55;;;;;;;18.63;16.70;;;20.90;99.90;;;;;;5008802;28;20271;-65
2023/05/23 01:18:32;;;;;;;17.20;15.50;;;20.90;99.90;;;;;;5005998;28;21016;-65
2023/05/23 01:21:10;;;;;;;18.37;16.57;;;20.90;99.90;;;;;;5008852;28;20530;-65
2023/05/23 01:24:09;;;;;;;17.17;15.47;;;20.90;99.90;;;;;;5011977;28;20440;-65
2023/05/23 01:26:44;;;;;;;19.00;17.00;;;20.80;99.90;;;;;;5020474;28;20424;-65
2023/05/23 01:29:13;;;;;;;19.97;17.60;;;20.80;99.90;;;;;;5017081;28;20446;-65
2023/05/23 01:31:45;;;;;;;18.70;16.57;;;20.80;99.90;;;;;;5022067;28;20553;-65
2023/05/23 01:34:12;;;;;;;18.73;16.57;;;20.70;99.90;;;;;;5019819;28;20841;-65
2023/05/23 01:36:44;;;;;;;20.80;18.60;;;20.70;99.90;;;;;;5017194;28;20438;-65
2023/05/23 01:39:10;;;;;;;19.63;17.47;;;20.70;99.90;;;;;;5016553;28;20454;-65
2023/05/23 01:41:36;;;;;;;22.60;19.37;;;20.70;99.90;;;;;;5023184;28;20528;-65
2023/05/23 01:44:03;;;;;;;23.20;19.03;;;20.70;99.90;;;;;;5026695;28;20511;-65
2023/05/23 01:46:31;;;;;;;20.10;18.10;;;20.60;99.90;;;;;;5016354;28;20435;-64
2023/05/23 01:48:58;;;;;;;22.00;18.67;;;20.60;99.90;;;;;;5021071;28;20497;-64
2023/05/23 01:51:25;;;;;;;21.47;18.63;;;20.50;99.90;;;;;;5023149;28;20463;-64
2023/05/23 01:53:51;;;;;;;19.60;17.60;;;20.50;99.90;;;;;;5011564;28;20458;-65
2023/05/23 01:56:18;;;;;;;21.67;19.30;;;20.50;99.90;;;;;;5013636;28;20431;-64
2023/05/23 01:58:44;;;;;;;22.40;19.70;;;20.50;99.90;;;;;;5017529;28;20192;-65
2023/05/23 02:01:10;;;;;;;21.70;19.60;;;20.50;99.90;;;;;;5018269;28;20458;-65
2023/05/23 02:03:36;;;;;;;20.97;18.80;;;20.60;99.90;;;;;;5013065;28;20259;-65
2023/05/23 02:06:01;;;;;;;21.30;19.20;;;20.80;99.90;;;;;;5014934;28;20283;-65
2023/05/23 02:08:27;;;;;;;21.00;18.70;;;20.80;99.90;;;;;;5016294;28;20208;-65
2023/05/23 02:10:52;;;;;;;23.70;18.67;;;20.60;99.90;;;;;;5018252;28;20199;-65
2023/05/23 02:13:18;;;;;;;21.73;19.43;;;20.50;99.90;;;;;;5017419;28;20188;-64
2023/05/23 02:15:43;;;;;;;20.63;18.13;;;20.50;99.90;;;;;;5023210;28;20241;-65
2023/05/23 02:18:09;;;;;;;20.73;18.63;;;20.50;99.90;;;;;;5016181;28;20263;-65
2023/05/23 02:20:34;;;;;;;20.93;18.80;;;20.50;99.90;;;;;;5008916;28;20592;-65
2023/05/23 02:23:00;;;;;;;23.53;19.53;;;20.50;99.90;;;;;;5012008;28;20189;-65
2023/05/23 02:25:26;;;;;;;25.43;22.20;;;20.50;99.90;;;;;;5003337;28;20193;-65
2023/05/23 02:27:51;;;;;;;23.27;20.80;;;20.40;99.90;;;;;;5018407;28;20184;-65
2023/05/23 02:30:17;;;;;;;19.97;17.97;;;20.40;99.90;;;;;;5012521;28;20268;-64
2023/05/23 02:32:43;;;;;;;25.07;20.10;;;20.40;99.90;;;;;;5020519;28;20243;-65
2023/05/23 02:35:09;;;;;;;21.93;19.63;;;20.40;99.90;;;;;;5025950;28;20242;-65
2023/05/23 02:37:35;;;;;;;24.40;21.10;;;20.50;99.90;;;;;;5018488;28;20228;-65
2023/05/23 02:40:00;;;;;;;26.60;22.23;;;20.50;99.90;;;;;;5011896;28;21011;-65
2023/05/23 02:42:26;;;;;;;26.63;21.17;;;20.60;99.90;;;;;;5021871;28;20957;-65
2023/05/23 02:44:52;;;;;;;26.27;20.80;;;20.50;99.90;;;;;;5021284;28;20180;-65
2023/05/23 02:47:17;;;;;;;28.77;23.07;;;20.50;99.90;;;;;;5025277;28;20255;-65
2023/05/23 02:49:43;;;;;;;24.47;21.63;;;20.50;99.90;;;;;;5010497;28;20209;-65
2023/05/23 02:52:08;;;;;;;22.87;20.37;;;20.50;99.90;;;;;;5009792;28;20278;-65
2023/05/23 02:54:34;;;;;;;25.80;22.20;;;20.50;99.90;;;;;;5014846;28;20185;-65
2023/05/23 02:57:00;;;;;;;27.73;22.87;;;20.60;99.90;;;;;;5016179;28;20722;-65
2023/05/23 02:59:26;;;;;;;25.07;22.37;;;20.60;99.90;;;;;;5009779;28;20263;-64
2023/05/23 03:01:51;;;;;;;25.50;22.10;;;20.60;99.90;;;;;;5019177;28;20420;-64
2023/05/23 03:04:17;;;;;;;24.73;22.03;;;20.60;99.90;;;;;;5019146;28;20185;-65
2023/05/23 03:06:43;;;;;;;23.43;20.80;;;20.60;99.90;;;;;;5017446;28;20275;-65
2023/05/23 03:09:09;;;;;;;28.50;22.60;;;20.60;99.90;;;;;;5012960;28;20204;-65
2023/05/23 03:11:36;;;;;;;24.10;21.80;;;20.60;99.90;;;;;;5017453;28;20467;-65
2023/05/23 03:14:01;;;;;;;23.90;21.40;;;20.60;99.90;;;;;;5015716;28;20451;-65
2023/05/23 03:16:27;;;;;;;26.90;23.77;;;20.60;99.90;;;;;;5017754;28;21233;-65
2023/05/23 03:18:52;;;;;;;27.10;23.50;;;20.60;99.90;;;;;;5008881;28;20879;-65
2023/05/23 03:21:18;;;;;;;26.67;22.97;;;20.60;99.90;;;;;;5004787;28;20283;-65
2023/05/23 03:23:43;;;;;;;27.27;23.50;;;20.70;99.90;;;;;;5011668;28;20181;-65
2023/05/23 03:26:09;;;;;;;25.30;22.80;;;20.70;99.90;;;;;;5014143;28;20188;-65
2023/05/23 03:28:35;;;;;;;26.10;23.40;;;20.70;99.90;;;;;;5010518;28;20197;-64
2023/05/23 03:31:00;;;;;;;28.10;25.23;;;20.70;99.90;;;;;;5013288;28;20220;-64
2023/05/23 03:33:26;;;;;;;31.70;27.67;;;20.70;99.90;;;;;;5020806;28;20655;-64
2023/05/23 03:35:52;;;;;;;31.80;27.63;;;20.70;99.90;;;;;;5014085;28;20188;-64
2023/05/23 03:38:17;;;;;;;32.77;28.63;;;20.80;99.90;;;;;;5014088;28;20631;-64
2023/05/23 03:40:43;;;;;;;31.80;26.57;;;20.80;99.90;;;;;;5019898;28;20185;-64
2023/05/23 03:43:08;;;;;;;28.47;25.60;;;20.80;99.90;;;;;;5019316;28;20180;-64
2023/05/23 03:45:34;;;;;;;28.50;25.23;;;20.80;99.90;;;;;;5018521;28;20184;-65
2023/05/23 03:48:00;;;;;;;31.33;26.93;;;20.80;99.90;;;;;;5025770;28;20704;-64
2023/05/23 03:50:26;;;;;;;32.97;29.00;;;20.80;99.90;;;;;;5022175;28;20271;-64
2023/05/23 03:52:52;;;;;;;30.40;27.07;;;20.80;99.90;;;;;;5022191;28;20200;-64
2023/05/23 03:55:21;;;;;;;28.97;25.83;;;20.80;99.90;;;;;;5017681;28;20645;-65
2023/05/23 03:57:47;;;;;;;32.40;27.60;;;20.80;99.90;;;;;;5016671;28;20470;-64
2023/05/23 04:00:14;;;;;;;31.83;27.10;;;20.80;99.90;;;;;;5013511;28;20506;-64
2023/05/23 04:02:39;;;;;;;33.50;29.90;;;20.80;99.90;;;;;;5023286;28;20999;-64
2023/05/23 04:05:05;;;;;;;30.37;26.97;;;20.80;99.90;;;;;;5015880;28;20420;-64
2023/05/23 04:07:35;;;;;;;32.03;28.53;;;20.80;99.90;;;;;;5022698;28;20181;-65
2023/05/23 04:10:01;;;;;;;33.83;29.60;;;20.80;99.90;;;;;;5025383;28;20513;-64
2023/05/23 04:12:30;;;;;;;34.33;28.77;;;20.90;99.90;;;;;;5019100;28;20463;-64
2023/05/23 04:14:56;;;;;;;32.60;29.10;;;20.90;99.90;;;;;;5020730;28;20465;-65
2023/05/23 04:17:22;;;;;;;39.30;30.80;;;20.90;99.90;;;;;;5014541;28;20438;-65
2023/05/23 04:19:51;;;;;;;32.40;28.67;;;20.90;99.90;;;;;;5020797;28;20468;-65
2023/05/23 04:22:17;;;;;;;30.50;27.30;;;20.90;99.90;;;;;;5012439;28;20443;-65
2023/05/23 04:24:43;;;;;;;32.03;28.67;;;20.90;99.90;;;;;;5013031;28;21673;-65
2023/05/23 04:27:08;;;;;;;32.40;29.10;;;20.90;99.90;;;;;;5014237;28;20259;-65
2023/05/23 04:29:34;;;;;;;33.40;28.07;;;20.90;99.90;;;;;;5016804;28;20784;-65
2023/05/23 04:32:04;;;;;;;34.53;29.63;;;20.90;99.90;;;;;;5014790;28;20227;-65
2023/05/23 04:34:32;;;;;;;31.50;28.27;;;20.80;99.90;;;;;;5020651;28;20434;-65
2023/05/23 04:37:01;;;;;;;30.93;27.60;;;20.80;99.90;;;;;;5016220;28;20838;-65
2023/05/23 04:39:26;;;;;;;30.87;27.33;;;20.80;99.90;;;;;;5018772;28;20453;-65
2023/05/23 04:41:53;;;;;;;33.00;29.63;;;20.80;99.90;;;;;;5027213;28;20931;-65
2023/05/23 04:44:19;;;;;;;31.67;28.23;;;20.80;99.90;;;;;;5018314;28;20280;-65
2023/05/23 04:46:44;;;;;;;32.27;28.97;;;20.80;99.90;;;;;;5019724;28;20876;-64
2023/05/23 04:49:11;;;;;;;34.00;28.20;;;20.80;99.90;;;;;;5013782;28;20462;-64
2023/05/23 04:51:37;;;;;;;30.87;26.40;;;20.70;99.90;;;;;;5014234;28;20559;-64
2023/05/23 04:54:03;;;;;;;32.30;28.57;;;20.80;99.90;;;;;;5015576;28;20458;-64
2023/05/23 04:56:29;;;;;;;29.73;26.60;;;20.80;99.90;;;;;;5026362;28;20191;-65
2023/05/23 04:58:55;;;;;;;31.20;27.73;;;20.80;99.90;;;;;;5017310;28;20208;-64
2023/05/23 05:01:23;;;;;;;31.93;28.07;;;20.80;99.90;;;;;;5023940;28;20188;-64
2023/05/23 05:03:49;;;;;;;29.60;25.70;;;20.90;99.90;;;;;;5020035;28;20446;-65
2023/05/23 05:06:15;;;;;;;31.23;26.73;;;20.90;99.90;;;;;;5020657;28;20928;-65
2023/05/23 05:08:41;;;;;;;28.73;25.80;;;20.90;99.90;;;;;;5009311;28;20491;-65
2023/05/23 05:11:06;;;;;;;29.53;26.40;;;20.90;99.90;;;;;;5022189;28;20459;-65
2023/05/23 05:13:32;;;;;;;26.77;24.07;;;20.90;99.90;;;;;;5018825;28;20192;-65
2023/05/23 05:15:57;;;;;;;28.47;25.37;;;20.90;99.90;;;;;;5022910;28;20180;-65
2023/05/23 05:18:24;;;;;;;27.27;24.33;;;20.90;99.90;;;;;;5017303;28;22050;-64
2023/05/23 05:20:50;;;;;;;24.50;22.00;;;20.90;99.90;;;;;;5014055;28;20204;-64
2023/05/23 05:23:16;;;;;;;27.37;24.40;;;20.90;99.90;;;;;;5024489;28;20528;-64
2023/05/23 05:25:41;;;;;;;24.60;22.10;;;20.90;99.90;;;;;;5020070;28;20207;-64
2023/05/23 05:28:07;;;;;;;26.17;22.73;;;20.90;99.90;;;;;;5025886;28;20208;-65
2023/05/23 05:30:34;;;;;;;24.80;22.13;;;21.00;99.90;;;;;;5024283;28;20621;-65
2023/05/23 05:33:01;;;;;;;25.87;22.10;;;21.00;99.90;;;;;;5025942;28;20556;-65
2023/05/23 05:35:27;;;;;;;23.53;21.20;;;21.00;99.90;;;;;;5016286;28;20460;-65
2023/05/23 05:37:52;;;;;;;23.40;21.10;;;21.10;99.90;;;;;;5029126;28;20465;-65
2023/05/23 05:40:18;;;;;;;25.33;19.83;;;21.10;99.90;;;;;;5018116;28;20191;-65
2023/05/23 05:42:44;;;;;;;24.60;22.10;;;21.00;99.90;;;;;;5028474;28;20191;-65
2023/05/23 05:45:10;;;;;;;22.40;20.20;;;21.00;99.90;;;;;;5022612;28;20192;-65
2023/05/23 05:47:37;;;;;;;21.73;19.63;;;21.10;99.90;;;;;;5018172;28;20711;-65
2023/05/23 05:50:04;;;;;;;21.63;19.43;;;21.10;99.90;;;;;;5025385;28;20497;-65
2023/05/23 05:52:30;;;;;;;22.77;20.37;;;21.10;99.90;;;;;;5021786;28;20471;-65
2023/05/23 05:54:56;;;;;;;21.40;19.17;;;21.10;99.90;;;;;;5025719;28;20414;-65
2023/05/23 05:57:22;;;;;;;22.33;19.60;;;21.10;99.90;;;;;;5024156;28;20192;-64
2023/05/23 05:59:47;;;;;;;21.70;19.43;;;21.10;99.90;;;;;;5015334;28;20450;-64
2023/05/23 06:02:13;;;;;;;22.20;19.07;;;21.20;99.90;;;;;;5017364;28;20190;-64
2023/05/23 06:04:38;;;;;;;20.57;18.27;;;21.20;99.90;;;;;;5015907;28;20230;-64
2023/05/23 06:07:04;;;;;;;20.73;17.47;;;21.20;99.90;;;;;;5023071;28;20250;-65
2023/05/23 06:09:29;;;;;;;19.50;17.40;;;21.20;99.90;;;;;;5014643;28;20211;-65
2023/05/23 06:11:55;;;;;;;18.93;17.23;;;21.20;99.90;;;;;;5022934;28;21479;-65
2023/05/23 06:14:21;;;;;;;44.60;39.90;;;21.30;99.90;;;;;;5023018;28;20184;-65
2023/05/23 06:16:46;;;;;;;21.97;19.67;;;21.30;99.90;;;;;;5016085;28;20397;-65
2023/05/23 06:19:12;;;;;;;20.40;18.50;;;21.30;99.90;;;;;;5016314;28;20228;-65
2023/05/23 06:21:37;;;;;;;18.83;16.93;;;21.40;99.90;;;;;;5014849;28;20718;-65
2023/05/23 06:24:03;;;;;;;23.77;18.73;;;21.40;99.90;;;;;;5020339;28;20279;-65
2023/05/23 06:26:28;;;;;;;21.37;19.30;;;21.40;99.90;;;;;;5017841;28;20275;-65
2023/05/23 06:28:54;;;;;;;21.40;19.30;;;21.40;99.90;;;;;;5015936;28;20212;-65
2023/05/23 06:31:20;;;;;;;22.20;18.40;;;21.40;99.90;;;;;;5014790;28;20503;-65
2023/05/23 06:33:45;;;;;;;19.30;17.30;;;21.50;99.90;;;;;;5014551;28;20663;-65
2023/05/23 06:36:11;;;;;;;19.53;17.20;;;21.50;99.90;;;;;;5023270;28;20211;-65
2023/05/23 06:38:36;;;;;;;18.67;16.13;;;21.50;99.90;;;;;;5016207;28;21977;-64
2023/05/23 06:41:03;;;;;;;16.97;15.27;;;21.50;99.90;;;;;;5018090;28;20638;-63
2023/05/23 06:43:28;;;;;;;16.27;14.67;;;21.60;99.90;;;;;;5013565;28;20177;-66
2023/05/23 06:45:54;;;;;;;17.77;15.90;;;21.50;99.90;;;;;;5015019;28;20431;-63
2023/05/23 06:48:20;;;;;;;18.00;16.10;;;21.50;99.90;;;;;;5019620;28;20293;-64
2023/05/23 06:50:45;;;;;;;16.17;14.47;;;21.50;99.90;;;;;;5024042;28;20180;-64
2023/05/23 06:53:11;;;;;;;17.60;14.90;;;21.40;99.90;;;;;;5021430;28;20216;-65
2023/05/23 06:55:36;;;;;;;17.90;15.70;;;21.30;99.90;;;;;;5014764;28;20190;-67
2023/05/23 06:58:03;;;;;;;16.70;13.90;;;21.20;99.90;;;;;;5011280;28;20890;-67
2023/05/23 07:00:32;;;;;;;15.67;14.07;;;21.10;99.90;;;;;;5013242;28;20276;-68
2023/05/23 07:03:00;;;;;;;17.60;15.90;;;21.00;99.90;;;;;;5017803;28;20449;-68
2023/05/23 07:05:26;;;;;;;15.13;13.70;;;20.90;99.90;;;;;;5013402;28;20518;-66
2023/05/23 07:07:52;;;;;;;15.63;14.03;;;20.90;99.90;;;;;;5019278;28;20444;-66
2023/05/23 07:10:18;;;;;;;16.03;14.43;;;20.90;99.90;;;;;;5024524;28;20442;-66
2023/05/23 07:12:45;;;;;;;14.80;13.37;;;20.80;99.90;;;;;;5018732;28;20258;-66
2023/05/23 07:15:11;;;;;;;17.07;12.90;;;20.80;99.90;;;;;;5021628;28;20877;-66
2023/05/23 07:17:36;;;;;;;19.50;14.23;;;20.80;99.90;;;;;;5015724;28;20531;-66
2023/05/23 07:20:03;;;;;;;15.70;13.87;;;20.80;99.90;;;;;;5010741;28;21193;-66
2023/05/23 07:22:29;;;;;;;16.90;15.20;;;20.90;99.90;;;;;;5011993;28;20181;-66
2023/05/23 07:24:55;;;;;;;18.10;14.80;;;20.90;99.90;;;;;;5011495;28;20439;-66
2023/05/23 07:27:21;;;;;;;15.70;14.03;;;21.00;99.90;;;;;;5016399;28;20445;-66
2023/05/23 07:29:46;;;;;;;24.70;14.70;;;21.10;99.90;;;;;;5009325;28;20204;-66
2023/05/23 07:32:12;;;;;;;16.57;14.77;;;21.20;99.90;;;;;;5014390;28;20223;-66
2023/05/23 07:34:38;;;;;;;18.73;16.73;;;21.30;99.90;;;;;;5009389;28;20250;-66
2023/05/23 07:37:03;;;;;;;17.57;15.07;;;21.30;99.90;;;;;;5017002;28;20222;-66
2023/05/23 07:39:29;;;;;;;16.83;15.07;;;21.30;99.90;;;;;;5015237;28;20204;-66
2023/05/23 07:41:54;;;;;;;19.57;16.77;;;21.30;99.90;;;;;;5012570;28;20267;-66
2023/05/23 07:44:20;;;;;;;17.30;15.50;;;21.30;99.90;;;;;;5017301;28;20566;-66
2023/05/23 07:46:46;;;;;;;16.10;14.60;;;21.30;99.90;;;;;;5012304;28;20271;-66
2023/05/23 07:49:11;;;;;;;16.90;15.20;;;21.20;99.90;;;;;;5017601;28;20643;-66
2023/05/23 07:51:37;;;;;;;16.70;14.93;;;21.20;99.90;;;;;;5014366;28;20682;-66
2023/05/23 07:54:03;;;;;;;17.77;15.90;;;21.40;99.90;;;;;;5012975;28;20278;-66
2023/05/23 07:56:28;;;;;;;17.17;15.47;;;21.40;99.90;;;;;;5025290;28;20179;-66
2023/05/23 07:58:54;;;;;;;18.57;16.57;;;21.50;99.90;;;;;;5011934;28;20195;-66
2023/05/23 08:01:20;;;;;;;16.77;14.60;;;21.50;99.90;;;;;;5012223;28;20606;-66
2023/05/23 08:03:46;;;;;;;17.83;16.03;;;21.60;99.90;;;;;;5018659;28;20876;-66
2023/05/23 08:06:12;;;;;;;16.90;15.30;;;21.70;99.90;;;;;;5023698;28;20435;-66
2023/05/23 08:08:37;;;;;;;15.70;14.20;;;21.70;99.90;;;;;;5018667;28;20596;-66
2023/05/23 08:11:03;;;;;;;15.90;13.60;;;21.80;99.90;;;;;;5018918;28;20623;-66
2023/05/23 08:13:30;;;;;;;17.10;15.30;;;21.80;99.90;;;;;;5014640;28;20285;-66
2023/05/23 08:15:55;;;;;;;15.47;13.60;;;22.00;99.90;;;;;;5012260;28;20642;-66
2023/05/23 08:18:21;;;;;;;15.33;13.73;;;22.10;99.90;;;;;;5019872;28;20554;-66
2023/05/23 08:20:46;;;;;;;16.07;13.30;;;22.10;99.90;;;;;;5015566;28;20216;-66
2023/05/23 08:23:13;;;;;;;13.93;12.50;;;22.20;99.90;;;;;;5017211;28;20185;-66
2023/05/23 08:25:38;;;;;;;13.53;12.20;;;22.20;99.90;;;;;;5013346;28;20239;-66
2023/05/23 08:28:04;;;;;;;13.33;12.03;;;22.30;99.90;;;;;;5016982;28;20458;-66
2023/05/23 08:30:32;;;;;;;14.30;12.50;;;22.10;99.90;;;;;;5011019;28;20713;-66
2023/05/23 08:32:59;;;;;;;13.77;12.37;;;22.10;99.90;;;;;;5012785;28;20197;-66
2023/05/23 08:35:28;;;;;;;12.27;11.07;;;22.10;99.90;;;;;;5022048;28;20449;-66
2023/05/23 08:37:54;;;;;;;15.37;11.50;;;22.00;99.90;;;;;;5024424;28;20432;-66
2023/05/23 08:40:21;;;;;;;12.83;11.60;;;22.00;99.90;;;;;;5022811;28;20488;-66
2023/05/23 08:42:48;;;;;;;12.40;11.17;;;22.00;99.90;;;;;;5022827;28;20944;-66
2023/05/23 08:45:14;;;;;;;12.90;11.27;;;21.90;99.90;;;;;;5022792;28;20493;-66
2023/05/23 08:47:43;;;;;;;10.87;9.83;;;22.00;99.90;;;;;;5021774;28;20473;-66
2023/05/23 08:50:12;;;;;;;11.73;10.53;;;21.80;99.90;;;;;;5019477;28;21518;-66
2023/05/23 08:52:43;;;;;;;12.40;10.50;;;21.80;99.90;;;;;;5019240;28;20474;-66
2023/05/23 08:55:10;;;;;;;9.80;9.00;;;21.90;99.90;;;;;;5019430;28;20492;-66
2023/05/23 08:57:38;;;;;;;10.50;9.50;;;22.00;99.90;;;;;;5020703;28;20439;-66
2023/05/23 09:00:09;;;;;;;10.63;9.53;;;22.00;99.90;;;;;;5020088;28;20451;-66
2023/05/23 09:02:36;;;;;;;8.97;8.17;;;22.10;99.90;;;;;;5026627;28;20427;-66
2023/05/23 09:05:02;;;;;;;10.30;9.30;;;22.20;99.90;;;;;;5026841;28;21050;-66
2023/05/23 09:07:28;;;;;;;8.80;8.00;;;22.10;99.90;;;;;;5028643;28;20522;-66
2023/05/23 09:09:54;;;;;;;13.13;9.60;;;22.20;99.90;;;;;;5023473;28;20307;-66
2023/05/23 09:12:22;;;;;;;8.93;8.13;;;22.30;99.90;;;;;;5024931;28;20556;-66
2023/05/23 09:14:49;;;;;;;9.37;8.50;;;22.30;99.90;;;;;;5029196;28;20431;-66
2023/05/23 09:17:18;;;;;;;8.63;7.73;;;22.30;99.90;;;;;;5023315;28;20545;-66
2023/05/23 09:19:45;;;;;;;8.47;7.70;;;22.30;99.90;;;;;;5023907;28;20470;-66
2023/05/23 09:22:11;;;;;;;8.90;8.00;;;22.30;99.90;;;;;;5030310;28;20496;-66
2023/05/23 09:24:37;;;;;;;8.70;7.90;;;22.40;99.90;;;;;;5017540;28;20637;-66
2023/05/23 09:27:06;;;;;;;9.23;8.40;;;22.40;99.90;;;;;;5018702;28;20184;-66
2023/05/23 09:29:35;;;;;;;8.20;7.50;;;22.40;99.90;;;;;;5026265;28;20577;-66
2023/05/23 09:32:11;;;;;;;8.20;7.33;;;22.50;99.90;;;;;;5018808;28;21098;-66
2023/05/23 09:34:41;;;;;;;8.70;7.90;;;22.70;99.90;;;;;;5016344;28;20446;-66
2023/05/23 09:37:08;;;;;;;8.40;7.37;;;22.70;99.90;;;;;;5022897;28;20563;-65
2023/05/23 09:39:37;;;;;;;8.20;7.50;;;22.80;99.90;;;;;;5018630;28;20487;-67
2023/05/23 09:42:03;;;;;;;7.40;6.80;;;22.80;99.90;;;;;;5021711;28;20446;-66
2023/05/23 09:44:28;;;;;;;7.00;6.30;;;22.80;99.90;;;;;;5017959;28;20601;-66
2023/05/23 09:46:54;;;;;;;6.73;6.13;;;22.90;99.90;;;;;;5024471;28;20253;-66
2023/05/23 09:49:21;;;;;;;7.83;6.40;;;22.90;99.90;;;;;;5013083;28;20205;-64
2023/05/23 09:51:56;;;;;;;6.17;5.57;;;23.00;99.90;;;;;;5021107;28;20230;-65
2023/05/23 09:54:22;;;;;;;6.47;5.87;;;23.20;99.90;;;;;;5011658;28;20440;-65
2023/05/23 09:56:51;;;;;;;5.90;5.40;;;23.40;99.90;;;;;;5016961;28;20990;-65
2023/05/23 09:59:22;;;;;;;5.83;5.27;;;23.50;99.90;;;;;;5013358;28;20335;-65
2023/05/23 10:01:50;;;;;;;6.03;5.47;;;23.60;99.90;;;;;;5017568;28;20525;-66
2023/05/23 10:04:20;;;;;;;6.13;5.37;;;23.60;99.90;;;;;;5019033;28;20494;-66
2023/05/23 10:06:53;;;;;;;5.73;5.23;;;23.60;99.90;;;;;;5019031;28;20466;-65
2023/05/23 10:09:22;;;;;;;6.47;5.90;;;23.60;99.90;;;;;;5016900;28;20500;-65
2023/05/23 10:12:06;;;;;;;5.60;5.10;;;23.70;99.90;;;;;;5009099;28;20470;-65
2023/05/23 10:14:34;;;;;;;5.40;4.90;;;23.60;99.90;;;;;;5009247;28;20439;-65
2023/05/23 10:17:38;;;;;;;5.73;5.23;;;23.60;99.90;;;;;;5015166;28;20966;-65
2023/05/23 10:20:09;;;;;;;6.17;5.57;;;23.50;99.90;;;;;;5018122;28;20558;-65
2023/05/23 10:22:35;;;;;;;6.23;5.67;;;22.90;99.90;;;;;;5013799;28;20431;-65
2023/05/23 10:25:04;;;;;;;6.40;5.57;;;22.90;99.90;;;;;;5020468;28;20994;-65
2023/05/23 10:27:30;;;;;;;5.50;4.90;;;23.00;99.90;;;;;;5019227;28;20463;-65
2023/05/23 10:29:57;;;;;;;5.70;5.20;;;23.30;99.90;;;;;;5016436;28;21126;-65
2023/05/23 10:32:25;;;;;;;5.70;5.20;;;23.50;99.90;;;;;;5017639;28;21193;-66
2023/05/23 10:34:58;;;;;;;6.00;4.80;;;23.70;99.90;;;;;;5015409;28;20533;-66
2023/05/23 10:37:37;;;;;;;6.17;5.67;;;23.70;99.90;;;;;;5015639;28;20525;-67
2023/05/23 10:40:04;;;;;;;5.80;5.20;;;23.80;99.90;;;;;;5009020;28;20448;-66
2023/05/23 10:42:52;;;;;;;5.37;4.90;;;23.80;99.90;;;;;;5016030;28;20443;-67
2023/05/23 10:45:19;;;;;;;5.40;5.00;;;23.80;99.90;;;;;;5017909;28;20764;-66
2023/05/23 10:47:47;;;;;;;5.50;5.00;;;23.60;99.90;;;;;;5016405;28;20428;-66
2023/05/23 10:50:17;;;;;;;4.70;4.30;;;23.30;99.90;;;;;;5013623;28;20443;-67
2023/05/23 10:52:43;;;;;;;5.20;4.73;;;23.30;99.90;;;;;;5043587;28;20478;-65
2023/05/23 10:55:19;;;;;;;5.20;4.70;;;23.20;99.90;;;;;;5021337;28;20427;-65
2023/05/23 10:58:04;;;;;;;6.03;5.53;;;23.20;99.90;;;;;;5016473;28;20436;-66
2023/05/23 11:00:31;;;;;;;5.50;4.93;;;23.40;99.90;;;;;;5017863;28;20428;-66
2023/05/23 11:03:07;;;;;;;5.23;4.73;;;23.60;99.90;;;;;;5017992;28;20466;-66
2023/05/23 11:05:35;;;;;;;6.03;5.53;;;23.70;99.90;;;;;;5021424;28;20500;-65
2023/05/23 11:08:19;;;;;;;5.60;4.60;;;23.80;99.90;;;;;;5012090;28;20470;-65
2023/05/23 11:11:01;;;;;;;5.30;4.90;;;24.20;99.90;;;;;;5017544;28;20944;-66
2023/05/23 11:13:54;;;;;;;5.00;4.53;;;23.90;99.90;;;;;;5018165;28;20471;-66
2023/05/23 11:16:48;;;;;;;4.83;4.40;;;24.10;99.90;;;;;;5009273;28;20435;-65
2023/05/23 11:19:19;;;;;;;5.20;4.80;;;24.30;99.90;;;;;;5012675;28;20467;-65
2023/05/23 11:22:04;;;;;;;5.20;4.80;;;24.10;99.80;;;;;;5014371;28;20510;-65
2023/05/23 11:24:50;;;;;;;6.67;6.07;;;23.80;99.90;;;;;;5017213;28;21233;-65
2023/05/23 11:27:24;;;;;;;5.63;5.00;;;23.70;99.90;;;;;;5012911;28;20489;-65
2023/05/23 11:30:17;;;;;;;5.07;4.63;;;23.70;99.90;;;;;;5015441;28;20513;-65
2023/05/23 11:32:54;;;;;;;5.00;4.60;;;23.70;99.90;;;;;;5009826;28;20470;-65
2023/05/23 11:35:20;;;;;;;5.00;4.50;;;23.80;99.90;;;;;;5018426;28;20864;-66
2023/05/23 11:37:46;;;;;;;5.80;4.70;;;23.90;99.90;;;;;;5014898;28;20518;-66
2023/05/23 11:40:34;;;;;;;4.77;4.37;;;24.20;99.90;;;;;;5019563;28;20959;-66
2023/05/23 11:43:03;;;;;;;4.87;4.47;;;24.60;99.90;;;;;;5016248;28;20447;-65
2023/05/23 11:45:37;;;;;;;5.87;5.10;;;24.90;99.60;;;;;;5011548;28;20582;-65
2023/05/23 11:48:07;;;;;;;7.03;4.70;;;25.10;99.10;;;;;;5018053;28;22248;-65
2023/05/23 11:50:35;;;;;;;5.57;5.07;;;25.10;98.50;;;;;;5012961;28;20490;-65
2023/05/23 11:53:06;;;;;;;7.50;4.97;;;25.10;97.90;;;;;;5013591;28;21145;-65
2023/05/23 11:55:31;;;;;;;5.53;4.17;;;25.00;98.10;;;;;;5020217;28;20486;-65
2023/05/23 11:58:09;;;;;;;5.20;4.80;;;24.90;98.40;;;;;;5018260;28;20463;-66
2023/05/23 12:00:42;;;;;;;4.93;4.53;;;24.70;98.70;;;;;;5019043;28;20262;-66
2023/05/23 12:03:08;;;;;;;5.70;5.20;;;24.50;98.70;;;;;;5010893;28;20493;-66
2023/05/23 12:05:41;;;;;;;4.77;4.37;;;24.00;99.00;;;;;;5017536;28;20972;-65
2023/05/23 12:08:17;;;;;;;4.90;4.50;;;23.80;99.20;;;;;;5014017;28;20638;-66
2023/05/23 12:10:58;;;;;;;4.63;4.23;;;23.60;99.30;;;;;;5011647;28;20444;-66
2023/05/23 12:13:25;;;;;;;4.57;4.17;;;23.40;99.60;;;;;;5015645;28;20546;-66
2023/05/23 12:15:58;;;;;;;4.60;4.20;;;23.30;99.50;;;;;;5015689;28;20454;-66
2023/05/23 12:18:36;;;;;;;4.80;4.40;;;23.10;99.90;;;;;;5020386;28;20455;-66
2023/05/23 12:21:06;;;;;;;4.50;4.10;;;23.00;99.90;;;;;;5014050;28;20454;-66
2023/05/23 12:23:32;;;;;;;6.80;4.93;;;22.90;99.90;;;;;;5017445;28;20663;-66
2023/05/23 12:25:58;;;;;;;5.17;4.77;;;22.80;99.90;;;;;;5017116;28;20442;-66
2023/05/23 12:28:36;;;;;;;5.40;4.90;;;22.80;99.90;;;;;;5010650;28;20543;-66
2023/05/23 12:31:28;;;;;;;6.93;5.17;;;22.90;99.90;;;;;;5031444;28;20192;-66
2023/05/23 12:33:54;;;;;;;5.17;4.77;;;23.00;99.90;;;;;;5011889;28;21728;-66
2023/05/23 12:36:25;;;;;;;5.10;4.70;;;23.00;99.90;;;;;;5012464;28;20442;-66
2023/05/23 12:38:51;;;;;;;5.93;5.37;;;23.10;99.90;;;;;;5014108;28;20633;-66